Time;durP1;ratioP1;P1;durP2;ratioP2;P2;SDS_P1;SDS_P2;PMS_P1;PMS_P2;Temp;Humidity;BMP_temperature;BMP_pressure;BME280_temperature;BME280_humidity;BME280_pressure;Samples;Min_cycle;Max_cycle;Signal;HPM_P1;HPM_P2
2022/12/12 00:02:04;;;;;;;;;;;;;;;-11.00;76.67;101256.84;5093264;28;19912;-66
2022/12/12 00:04:29;;;;;;;;;;;;;;;-11.03;76.10;101257.78;5097984;28;20272;-66
2022/12/12 00:06:54;;;;;;;;;;;;;;;-11.06;75.61;101262.19;5113697;28;20290;-67
2022/12/12 00:09:19;;;;;;;;;;;;;;;-11.07;76.05;101260.47;5103633;28;20505;-67
2022/12/12 00:11:45;;;;;;;;;;;;;;;-11.13;76.26;101261.47;5093268;28;19970;-66
2022/12/12 00:14:10;;;;;;;;;;;;;;;-11.24;76.11;101264.28;5089291;28;19919;-69
2022/12/12 00:16:35;;;;;;;;;;;;;;;-11.31;76.84;101262.72;5072496;28;19935;-68
2022/12/12 00:19:00;;;;;;;;;;;;;;;-11.31;76.40;101263.59;5092958;28;19912;-67
2022/12/12 00:21:27;;;;;;;;;;;;;;;-11.38;76.34;101253.41;5090357;28;19999;-67
2022/12/12 00:23:53;;;;;;;;;;;;;;;-11.39;76.66;101255.13;5093531;28;19951;-66
2022/12/12 00:26:23;;;;;;;;;;;;;;;-11.45;76.44;101254.41;5090751;28;19970;-65
2022/12/12 00:28:49;;;;;;;;;;;;;;;-11.48;77.52;101252.72;5092150;28;19912;-65
2022/12/12 00:31:15;;;;;;;;;;;;;;;-11.46;77.29;101255.28;5105428;28;19968;-72
2022/12/12 00:33:40;;;;;;;;;;;;;;;-11.47;77.61;101251.84;5105235;28;19912;-64
2022/12/12 00:36:05;;;;;;;;;;;;;;;-11.47;76.96;101248.44;5100812;28;19912;-66
2022/12/12 00:38:31;;;;;;;;;;;;;;;-11.49;77.76;101248.44;5097046;28;19912;-65
2022/12/12 00:40:57;;;;;;;;;;;;;;;-11.48;77.55;101255.31;5095129;28;19943;-68
2022/12/12 00:43:23;;;;;;;;;;;;;;;-11.48;77.41;101250.13;5101186;28;19922;-69
2022/12/12 00:45:48;;;;;;;;;;;;;;;-11.49;77.93;101248.44;5107044;28;19911;-68
2022/12/12 00:48:13;;;;;;;;;;;;;;;-11.47;77.74;101249.28;5090494;28;20362;-69
2022/12/12 00:50:39;;;;;;;;;;;;;;;-11.46;77.26;101247.53;5092738;28;20372;-68
2022/12/12 00:53:04;;;;;;;;;;;;;;;-11.52;77.39;101246.75;5087513;28;19916;-68
2022/12/12 00:55:29;;;;;;;;;;;;;;;-11.62;77.57;101247.88;5108737;28;20018;-71
2022/12/12 00:57:54;;;;;;;;;;;;;;;-11.64;78.16;101252.22;5104044;28;19912;-69
2022/12/12 01:00:20;;;;;;;;;;;;;;;-11.69;78.65;101248.88;5090090;28;19912;-68
2022/12/12 01:02:45;;;;;;;;;;;;;;;-11.72;77.98;101251.53;5092373;28;19912;-64
2022/12/12 01:05:11;;;;;;;;;;;;;;;-11.72;78.95;101247.22;5091312;28;19912;-65
2022/12/12 01:07:36;;;;;;;;;;;;;;;-11.67;78.06;101241.91;5099247;28;19912;-65
2022/12/12 01:10:02;;;;;;;;;;;;;;;-11.63;78.58;101246.16;5107882;28;19924;-64
2022/12/12 01:12:28;;;;;;;;;;;;;;;-11.58;78.42;101241.72;5091680;28;19927;-65
2022/12/12 01:14:53;;;;;;;;;;;;;;;-11.53;77.69;101242.47;5092167;28;20364;-64
2022/12/12 01:17:18;;;;;;;;;;;;;;;-11.50;77.64;101242.41;5090970;28;19966;-64
2022/12/12 01:19:43;;;;;;;;;;;;;;;-11.47;77.01;101240.66;5092054;28;19916;-63
2022/12/12 01:22:09;;;;;;;;;;;;;;;-11.54;77.20;101235.59;5092126;28;19923;-65
2022/12/12 01:24:34;;;;;;;;;;;;;;;-11.64;77.42;101231.50;5090871;28;19919;-63
2022/12/12 01:26:59;;;;;;;;;;;;;;;-11.73;77.09;101235.13;5092759;28;19963;-63
2022/12/12 01:29:31;;;;;;;;;;;;;;;-11.80;77.68;101228.38;5098321;28;20004;-64
2022/12/12 01:31:57;;;;;;;;;;;;;;;-11.84;77.92;101218.97;5096454;28;19946;-65
2022/12/12 01:34:22;;;;;;;;;;;;;;;-11.86;77.79;101225.09;5094379;28;20346;-63
2022/12/12 01:36:47;;;;;;;;;;;;;;;-11.91;77.40;101228.63;5095005;28;19917;-64
2022/12/12 01:39:12;;;;;;;;;;;;;;;-11.95;78.06;101234.75;5114539;28;19912;-64
2022/12/12 01:41:38;;;;;;;;;;;;;;;-11.98;78.80;101231.38;5104122;28;19974;-68
2022/12/12 01:44:06;;;;;;;;;;;;;;;-12.01;79.02;101232.31;5096523;28;19942;-64
2022/12/12 01:46:39;;;;;;;;;;;;;;;-12.06;78.87;101231.53;5087646;28;20226;-63
2022/12/12 01:49:12;;;;;;;;;;;;;;;-12.08;78.63;101236.75;5092051;28;20375;-65
2022/12/12 01:51:38;;;;;;;;;;;;;;;-11.95;79.31;101244.28;5089604;28;20015;-65
2022/12/12 01:54:07;;;;;;;;;;;;;;;-11.90;79.44;101240.72;5095117;28;20265;-63
2022/12/12 01:56:32;;;;;;;;;;;;;;;-11.99;78.87;101248.66;5096796;28;20368;-68
2022/12/12 01:58:58;;;;;;;;;;;;;;;-12.05;79.66;101253.97;5095507;28;19923;-64
2022/12/12 02:01:24;;;;;;;;;;;;;;;-12.01;80.23;101255.63;5091895;28;20347;-64
2022/12/12 02:03:49;;;;;;;;;;;;;;;-11.93;79.76;101248.53;5095050;28;19916;-64
2022/12/12 02:06:17;;;;;;;;;;;;;;;-11.83;80.31;101240.53;5093603;28;19919;-63
2022/12/12 02:08:45;;;;;;;;;;;;;;;-11.79;80.34;101235.28;5100731;28;19912;-63
2022/12/12 02:11:10;;;;;;;;;;;;;;;-11.78;80.07;101236.13;5085422;28;20389;-63
2022/12/12 02:13:36;;;;;;;;;;;;;;;-11.81;80.30;101233.59;5094381;28;19960;-64
2022/12/12 02:16:07;;;;;;;;;;;;;;;-11.88;80.00;101227.69;5094567;28;20355;-63
2022/12/12 02:18:35;;;;;;;;;;;;;;;-11.82;80.37;101234.50;5093055;28;19916;-63
2022/12/12 02:21:15;;;;;;;;;;;;;;;-11.90;80.03;101237.28;5094811;28;19912;-63
2022/12/12 02:23:54;;;;;;;;;;;;;;;-11.92;79.92;101239.88;5093713;28;19912;-64
2022/12/12 02:26:37;;;;;;;;;;;;;;;-11.92;80.65;101241.59;5093639;28;19938;-65
2022/12/12 02:29:19;;;;;;;;;;;;;;;-11.80;79.61;101235.31;5095164;28;20007;-67
2022/12/12 02:32:14;;;;;;;;;;;;;;;-11.94;79.39;101228.72;5093664;28;19923;-67
2022/12/12 02:34:42;;;;;;;;;;;;;;;-11.95;79.78;101237.34;5036162;28;19967;-66
2022/12/12 02:37:15;;;;;;;;;;;;;;;-11.95;79.88;101228.75;5074370;28;20306;-66
2022/12/12 02:39:49;;;;;;;;;;;;;;;-11.95;80.33;101237.34;5088049;28;20310;-67
2022/12/12 02:42:20;;;;;;;;;;;;;;;-11.92;79.46;101233.84;5104722;28;19924;-66
2022/12/12 02:44:54;;;;;;;;;;;;;;;-11.87;79.89;101242.34;5114890;28;19912;-66
2022/12/12 02:47:28;;;;;;;;;;;;;;;-11.88;80.24;101225.09;5075198;28;20279;-66
2022/12/12 02:49:59;;;;;;;;;;;;;;;-11.79;79.93;101229.22;5085347;28;19969;-66
2022/12/12 02:52:24;;;;;;;;;;;;;;;-11.79;79.74;101226.63;5115519;28;19920;-66
2022/12/12 02:54:49;;;;;;;;;;;;;;;-11.81;78.88;101218.03;5115681;28;20356;-66
2022/12/12 02:57:19;;;;;;;;;;;;;;;-11.69;79.67;101228.16;5115614;28;19919;-66
2022/12/12 02:59:47;;;;;;;;;;;;;;;-11.65;78.67;101234.13;5102175;28;19922;-66
2022/12/12 03:02:15;;;;;;;;;;;;;;;-11.72;79.40;101239.44;5095229;28;20317;-66
2022/12/12 03:08:05;;;;;;;;;;;;;;;-11.79;79.71;101231.81;5093842;28;19924;-66
2022/12/12 03:10:31;;;;;;;;;;;;;;;-11.77;79.41;101232.66;5094867;28;19916;-66
2022/12/12 03:13:09;;;;;;;;;;;;;;;-11.87;79.13;101239.75;5094941;28;20291;-66
2022/12/12 03:15:37;;;;;;;;;;;;;;;-11.95;78.87;101236.50;5107492;28;20393;-66
2022/12/12 03:18:11;;;;;;;;;;;;;;;-12.00;79.37;101230.56;5082408;28;19912;-66
2022/12/12 03:20:53;;;;;;;;;;;;;;;-11.94;79.84;101231.31;5074546;28;19912;-66
2022/12/12 03:23:25;;;;;;;;;;;;;;;-11.98;79.26;101232.22;5115052;28;19911;-66
2022/12/12 03:25:53;;;;;;;;;;;;;;;-12.08;78.76;101231.56;5115103;28;20432;-66
2022/12/12 03:28:29;;;;;;;;;;;;;;;-12.08;79.24;101236.75;5115126;28;19916;-66
2022/12/12 03:30:57;;;;;;;;;;;;;;;-12.08;79.17;101231.56;5115021;28;19915;-66
2022/12/12 03:33:43;;;;;;;;;;;;;;;-12.12;79.17;101232.50;5115458;28;19916;-66
2022/12/12 03:36:17;;;;;;;;;;;;;;;-12.12;79.50;101231.66;5114174;28;19916;-66
2022/12/12 03:38:55;;;;;;;;;;;;;;;-12.06;79.66;101230.69;5094916;28;19916;-66
2022/12/12 03:41:23;;;;;;;;;;;;;;;-12.05;79.40;101230.66;5092002;28;19928;-66
2022/12/12 03:43:53;;;;;;;;;;;;;;;-12.00;78.89;101230.56;5074010;28;19939;-66
2022/12/12 03:46:21;;;;;;;;;;;;;;;-11.98;79.35;101221.88;5074343;28;19991;-66
2022/12/12 03:48:49;;;;;;;;;;;;;;;-12.00;79.12;101227.97;5073993;28;20007;-66
2022/12/12 03:51:22;;;;;;;;;;;;;;;-12.02;78.84;101229.75;5090630;28;19924;-66
2022/12/12 03:53:51;;;;;;;;;;;;;;;-12.07;79.49;101232.41;5093832;28;19916;-66
2022/12/12 03:56:18;;;;;;;;;;;;;;;-12.09;79.17;101235.06;5093014;28;19919;-66
2022/12/12 03:58:46;;;;;;;;;;;;;;;-12.01;78.99;101245.25;5093719;28;19983;-66
2022/12/12 04:01:13;;;;;;;;;;;;;;;-12.09;78.50;101241.94;5093773;28;19912;-66
2022/12/12 04:03:38;;;;;;;;;;;;;;;-12.14;78.99;101248.97;5094437;28;20264;-66
2022/12/12 04:06:25;;;;;;;;;;;;;;;-12.14;80.00;101242.06;5094024;28;19918;-66
2022/12/12 04:15:09;;;;;;;;;;;;;;;-12.24;79.00;101260.38;5093763;28;19934;-67
2022/12/12 04:17:41;;;;;;;;;;;;;;;-12.27;79.64;101264.72;5114437;28;19916;-67
2022/12/12 04:23:16;;;;;;;;;;;;;;;-12.32;79.30;101258.78;5114419;28;19912;-67
2022/12/12 04:28:32;;;;;;;;;;;;;;;-12.24;79.78;101250.88;5094106;28;19912;-66
2022/12/12 04:31:02;;;;;;;;;;;;;;;-12.21;79.95;101255.16;5093707;28;19920;-66
2022/12/12 04:33:31;;;;;;;;;;;;;;;-12.17;79.07;101247.28;5093786;28;20019;-66
2022/12/12 04:35:58;;;;;;;;;;;;;;;-12.05;79.70;101250.50;5092724;28;20014;-67
2022/12/12 04:38:24;;;;;;;;;;;;;;;-11.85;79.21;101255.25;5084809;28;19916;-66
2022/12/12 04:40:52;;;;;;;;;;;;;;;-11.68;78.78;101253.16;5091014;28;20007;-67
2022/12/12 04:43:25;;;;;;;;;;;;;;;-11.64;77.99;101254.81;5113864;28;20020;-67
2022/12/12 04:45:53;;;;;;;;;;;;;;;-11.47;77.18;101257.03;5113869;28;20251;-67
2022/12/12 04:48:25;;;;;;;;;;;;;;;-11.37;76.69;101255.94;5114014;28;19916;-67
2022/12/12 04:50:51;;;;;;;;;;;;;;;-11.33;76.84;101256.72;5114673;28;19916;-67
2022/12/12 04:53:19;;;;;;;;;;;;;;;-11.27;76.75;101247.94;5113534;28;19911;-67
2022/12/12 04:55:51;;;;;;;;;;;;;;;-11.21;76.44;101251.25;5112960;28;19911;-67
2022/12/12 04:58:16;;;;;;;;;;;;;;;-11.12;76.32;101251.06;5094669;28;19912;-67
2022/12/12 05:00:53;;;;;;;;;;;;;;;-11.05;76.12;101254.34;5094370;28;20267;-67
2022/12/12 05:03:26;;;;;;;;;;;;;;;-10.92;76.24;101254.91;5096283;28;19912;-66
2022/12/12 05:05:59;;;;;;;;;;;;;;;-10.91;75.28;101257.47;5098106;28;19912;-67
2022/12/12 05:08:29;;;;;;;;;;;;;;;-10.79;75.26;101258.91;5098098;28;19923;-67
2022/12/12 05:10:57;;;;;;;;;;;;;;;-10.69;74.67;101262.13;5097959;28;19916;-66
2022/12/12 05:13:26;;;;;;;;;;;;;;;-10.74;75.04;101257.03;5098206;28;19919;-67
2022/12/12 05:15:53;;;;;;;;;;;;;;;-10.78;74.84;101257.16;5105091;28;19916;-66
2022/12/12 05:18:18;;;;;;;;;;;;;;;-10.79;75.09;101265.81;5117667;28;19941;-67
2022/12/12 05:20:44;;;;;;;;;;;;;;;-10.79;75.60;101271.88;5117520;28;19912;-67
2022/12/12 05:23:09;;;;;;;;;;;;;;;-10.75;75.98;101278.69;5117393;28;19963;-66
2022/12/12 05:25:34;;;;;;;;;;;;;;;-10.73;75.82;101276.91;5117520;28;20002;-67
2022/12/12 05:28:00;;;;;;;;;;;;;;;-10.71;75.64;101279.47;5117513;28;19916;-67
2022/12/12 05:30:26;;;;;;;;;;;;;;;-10.69;75.91;101282.88;5107313;28;19950;-67
2022/12/12 05:32:51;;;;;;;;;;;;;;;-10.69;75.06;101287.22;5097585;28;19923;-66
2022/12/12 05:35:16;;;;;;;;;;;;;;;-10.71;75.38;101282.06;5083418;28;19950;-66
2022/12/12 05:37:42;;;;;;;;;;;;;;;-10.72;75.95;101276.00;5077418;28;20005;-66
2022/12/12 05:40:09;;;;;;;;;;;;;;;-10.76;75.46;101282.19;5076509;28;19923;-66
2022/12/12 05:42:35;;;;;;;;;;;;;;;-10.75;76.05;101278.69;5077119;28;20301;-66
2022/12/12 05:45:00;;;;;;;;;;;;;;;-10.72;75.97;101277.75;5076681;28;19954;-66
2022/12/12 05:47:25;;;;;;;;;;;;;;;-10.68;75.54;101284.56;5100178;28;19916;-66
2022/12/12 05:49:51;;;;;;;;;;;;;;;-10.67;75.18;101285.44;5117196;28;19958;-66
2022/12/12 05:52:16;;;;;;;;;;;;;;;-10.69;75.70;101287.22;5117066;28;20264;-67
2022/12/12 05:54:47;;;;;;;;;;;;;;;-10.69;75.95;101282.03;5117097;28;19951;-67
2022/12/12 05:57:13;;;;;;;;;;;;;;;-10.63;75.69;101282.72;5117009;28;19921;-67
2022/12/12 05:59:38;;;;;;;;;;;;;;;-10.56;75.94;101278.25;5116597;28;19911;-67
2022/12/12 06:02:03;;;;;;;;;;;;;;;-10.43;75.25;101287.41;5105305;28;19911;-67
2022/12/12 06:04:28;;;;;;;;;;;;;;;-10.34;74.63;101286.34;5113976;28;19938;-67
2022/12/12 06:06:54;;;;;;;;;;;;;;;-10.22;73.80;101283.38;5095342;28;20006;-67
2022/12/12 06:09:19;;;;;;;;;;;;;;;-10.14;73.82;101286.63;5096284;28;19912;-67
2022/12/12 06:11:44;;;;;;;;;;;;;;;-10.05;73.16;101282.06;5096581;28;19916;-67
2022/12/12 06:14:09;;;;;;;;;;;;;;;-9.99;72.79;101292.28;5095719;28;19912;-67
2022/12/12 06:16:35;;;;;;;;;;;;;;;-9.93;72.56;101292.13;5109669;28;20253;-67
2022/12/12 06:19:01;;;;;;;;;;;;;;;-9.91;72.79;101285.16;5098789;28;19924;-67
2022/12/12 06:21:26;;;;;;;;;;;;;;;-9.83;72.35;101290.97;5096042;28;19930;-67
2022/12/12 06:23:51;;;;;;;;;;;;;;;-9.76;72.33;101294.25;5096315;28;20353;-66
2022/12/12 06:26:17;;;;;;;;;;;;;;;-9.80;72.60;101271.84;5096348;28;20015;-67
2022/12/12 06:28:43;;;;;;;;;;;;;;;-9.74;72.51;101282.91;5096116;28;20084;-67
2022/12/12 06:31:08;;;;;;;;;;;;;;;-9.73;72.02;101282.03;5085926;28;20405;-67
2022/12/12 06:33:34;;;;;;;;;;;;;;;-9.70;72.15;101278.47;5097830;28;19922;-67
2022/12/12 06:36:01;;;;;;;;;;;;;;;-9.67;72.24;101283.59;5116852;28;19912;-67
2022/12/12 06:38:27;;;;;;;;;;;;;;;-9.63;72.46;101292.16;5116452;28;19915;-66
2022/12/12 06:40:53;;;;;;;;;;;;;;;-9.61;71.76;101288.59;5116314;28;19927;-67
2022/12/12 06:43:18;;;;;;;;;;;;;;;-9.60;72.46;101292.94;5116070;28;20011;-67
2022/12/12 06:45:43;;;;;;;;;;;;;;;-9.58;72.40;101288.53;5116181;28;19918;-67
2022/12/12 06:48:08;;;;;;;;;;;;;;;-9.52;72.09;101287.50;5116362;28;20378;-67
2022/12/12 06:50:37;;;;;;;;;;;;;;;-9.48;72.36;101281.31;5107122;28;19916;-67
2022/12/12 06:53:02;;;;;;;;;;;;;;;-9.47;72.50;101288.22;5095499;28;19912;-66
2022/12/12 06:55:28;;;;;;;;;;;;;;;-9.44;72.17;101289.88;5095550;28;19915;-67
2022/12/12 06:57:53;;;;;;;;;;;;;;;-9.39;72.12;101293.19;5095796;28;19919;-67
2022/12/12 07:00:18;;;;;;;;;;;;;;;-9.37;72.02;101291.38;5094987;28;20374;-67
2022/12/12 07:02:44;;;;;;;;;;;;;;;-9.33;71.75;101294.75;5095513;28;20479;-67
2022/12/12 07:05:09;;;;;;;;;;;;;;;-9.30;72.06;101292.03;5095690;28;19919;-67
2022/12/12 07:07:34;;;;;;;;;;;;;;;-9.30;72.28;101292.91;5095904;28;19916;-67
2022/12/12 07:10:00;;;;;;;;;;;;;;;-9.27;71.99;101300.59;5095864;28;19938;-67
2022/12/12 07:12:25;;;;;;;;;;;;;;;-9.29;72.71;101283.34;5095329;28;19916;-67
2022/12/12 07:14:50;;;;;;;;;;;;;;;-9.28;72.70;101293.72;5095881;28;19951;-67
2022/12/12 07:17:15;;;;;;;;;;;;;;;-9.24;72.72;101284.06;5086595;28;20324;-67
2022/12/12 07:19:41;;;;;;;;;;;;;;;-9.21;72.47;101290.03;5077834;28;19970;-67
2022/12/12 07:22:06;;;;;;;;;;;;;;;-9.16;71.83;101292.47;5094841;28;19916;-67
2022/12/12 07:24:31;;;;;;;;;;;;;;;-9.19;72.50;101293.44;5094698;28;19969;-66
2022/12/12 07:26:57;;;;;;;;;;;;;;;-9.16;72.67;101292.47;5087113;28;19921;-67
2022/12/12 07:29:22;;;;;;;;;;;;;;;-9.16;72.36;101295.91;5074516;28;19912;-67
2022/12/12 07:31:47;;;;;;;;;;;;;;;-9.16;73.07;101295.09;5074608;28;20279;-67
2022/12/12 07:34:12;;;;;;;;;;;;;;;-9.13;72.67;101291.56;5074400;28;20015;-67
2022/12/12 07:36:38;;;;;;;;;;;;;;;-9.10;72.72;101287.09;5074072;28;19931;-67
2022/12/12 07:39:03;;;;;;;;;;;;;;;-9.07;72.58;101284.41;5108920;28;19912;-67
2022/12/12 07:41:28;;;;;;;;;;;;;;;-9.02;72.33;101284.25;5114599;28;19920;-69
2022/12/12 07:43:53;;;;;;;;;;;;;;;-9.02;71.90;101279.06;5114962;28;20356;-67
2022/12/12 07:46:21;;;;;;;;;;;;;;;-9.02;72.23;101279.91;5115338;28;20006;-67
2022/12/12 07:48:46;;;;;;;;;;;;;;;-9.01;72.64;101284.19;5115616;28;19921;-67
2022/12/12 07:51:12;;;;;;;;;;;;;;;-9.00;72.48;101282.47;5115367;28;19994;-67
2022/12/12 07:53:37;;;;;;;;;;;;;;;-8.99;72.27;101276.34;5113731;28;19912;-67
2022/12/12 07:56:04;;;;;;;;;;;;;;;-8.96;71.79;101279.69;5115215;28;19947;-67
2022/12/12 07:58:29;;;;;;;;;;;;;;;-8.99;72.15;101279.81;5115051;28;19912;-67
2022/12/12 08:00:55;;;;;;;;;;;;;;;-9.00;72.80;101280.69;5105183;28;19919;-67
2022/12/12 08:03:20;;;;;;;;;;;;;;;-8.96;72.55;101284.06;5095126;28;20003;-67
2022/12/12 08:05:45;;;;;;;;;;;;;;;-8.95;72.60;101285.78;5094668;28;19916;-67
2022/12/12 08:08:11;;;;;;;;;;;;;;;-8.94;73.05;101292.66;5094834;28;19919;-67
2022/12/12 08:10:39;;;;;;;;;;;;;;;-8.93;72.60;101297.00;5094750;28;19919;-67
2022/12/12 08:13:05;;;;;;;;;;;;;;;-8.90;73.03;101309.03;5094342;28;19960;-67
2022/12/12 08:15:30;;;;;;;;;;;;;;;-8.88;73.00;101305.47;5094422;28;20319;-67
2022/12/12 08:17:56;;;;;;;;;;;;;;;-8.87;72.72;101311.56;5094695;28;20016;-67
2022/12/12 08:20:21;;;;;;;;;;;;;;;-8.86;72.63;101311.47;5093867;28;19935;-67
2022/12/12 08:22:47;;;;;;;;;;;;;;;-8.78;72.02;101309.50;5091260;28;19916;-67
2022/12/12 08:25:12;;;;;;;;;;;;;;;-8.72;71.61;101298.03;5074414;28;19942;-67
2022/12/12 08:27:38;;;;;;;;;;;;;;;-8.69;71.38;101295.34;5074741;28;19923;-67
2022/12/12 08:30:04;;;;;;;;;;;;;;;-8.70;71.51;101293.63;5074466;28;19920;-67
2022/12/12 08:32:29;;;;;;;;;;;;;;;-8.68;72.00;101304.00;5073995;28;19916;-67
2022/12/12 08:34:55;;;;;;;;;;;;;;;-8.68;71.68;101302.25;5074161;28;19912;-67
2022/12/12 08:37:21;;;;;;;;;;;;;;;-8.70;71.85;101306.66;5074050;28;19920;-67
2022/12/12 08:39:46;;;;;;;;;;;;;;;-8.70;72.61;101303.19;5072731;28;20276;-67
2022/12/12 08:42:12;;;;;;;;;;;;;;;-8.70;72.13;101300.59;5072791;28;19932;-67
2022/12/12 08:44:37;;;;;;;;;;;;;;;-8.71;72.70;101302.38;5074084;28;19963;-67
2022/12/12 08:47:02;;;;;;;;;;;;;;;-8.70;72.67;101305.81;5073895;28;19912;-67
2022/12/12 08:49:28;;;;;;;;;;;;;;;-8.69;72.81;101300.56;5074643;28;20406;-67
2022/12/12 08:51:53;;;;;;;;;;;;;;;-8.66;73.06;101297.00;5074766;28;19917;-66
2022/12/12 08:54:19;;;;;;;;;;;;;;;-8.62;72.40;101302.03;5073689;28;19912;-67
2022/12/12 08:56:44;;;;;;;;;;;;;;;-8.61;72.98;101300.31;5074283;28;20010;-67
2022/12/12 08:59:09;;;;;;;;;;;;;;;-8.59;73.01;101295.88;5074038;28;19966;-67
2022/12/12 09:01:35;;;;;;;;;;;;;;;-8.53;73.20;101294.84;5073658;28;19951;-67
2022/12/12 09:04:00;;;;;;;;;;;;;;;-8.50;72.80;101298.19;5074019;28;20003;-67
2022/12/12 09:06:25;;;;;;;;;;;;;;;-8.50;72.75;101299.94;5091481;28;19911;-67
2022/12/12 09:08:51;;;;;;;;;;;;;;;-8.52;72.64;101302.59;5094010;28;19934;-67
2022/12/12 09:11:17;;;;;;;;;;;;;;;-8.51;73.20;101301.69;5094142;28;19959;-67
2022/12/12 09:13:42;;;;;;;;;;;;;;;-8.49;73.17;101302.47;5094339;28;20264;-67
2022/12/12 09:16:11;;;;;;;;;;;;;;;-8.44;71.70;101303.19;5092718;28;20302;-67
2022/12/12 09:18:37;;;;;;;;;;;;;;;-8.39;72.20;101311.66;5094369;28;20000;-67
2022/12/12 09:21:03;;;;;;;;;;;;;;;-8.38;72.64;101310.75;5075830;28;19919;-67
2022/12/12 09:23:28;;;;;;;;;;;;;;;-8.38;72.67;101313.34;5094449;28;20304;-67
2022/12/12 09:25:54;;;;;;;;;;;;;;;-8.33;72.94;101314.97;5093825;28;20414;-67
2022/12/12 09:28:20;;;;;;;;;;;;;;;-8.27;72.50;101310.41;5093777;28;19990;-67
2022/12/12 09:30:45;;;;;;;;;;;;;;;-8.20;71.39;101319.72;5093784;28;19919;-66
2022/12/12 09:33:11;;;;;;;;;;;;;;;-8.15;71.69;101319.56;5094005;28;20058;-66
2022/12/12 09:35:36;;;;;;;;;;;;;;;-8.09;71.02;101316.75;5094163;28;19912;-66
2022/12/12 09:38:02;;;;;;;;;;;;;;;-8.04;70.75;101311.34;5093930;28;20314;-67
2022/12/12 09:40:34;;;;;;;;;;;;;;;-8.01;71.48;101312.09;5093745;28;20399;-67
2022/12/12 09:42:59;;;;;;;;;;;;;;;-7.94;71.02;101310.13;5093572;28;19919;-66
2022/12/12 09:45:25;;;;;;;;;;;;;;;-7.89;71.49;101308.22;5094398;28;19998;-66
2022/12/12 09:47:56;;;;;;;;;;;;;;;-7.83;69.82;101302.78;5093457;28;19957;-66
2022/12/12 09:50:25;;;;;;;;;;;;;;;-7.76;69.83;101302.56;5097100;28;19944;-66
2022/12/12 09:52:54;;;;;;;;;;;;;;;-7.71;70.32;101306.69;5096713;28;19916;-67
2022/12/12 09:55:19;;;;;;;;;;;;;;;-7.67;70.78;101304.81;5097101;28;19918;-67
2022/12/12 09:57:49;;;;;;;;;;;;;;;-7.65;70.38;101310.84;5097633;28;19998;-66
2022/12/12 10:00:15;;;;;;;;;;;;;;;-7.61;70.85;101308.06;5093022;28;19939;-67
2022/12/12 10:02:46;;;;;;;;;;;;;;;-7.56;70.59;101305.28;5076010;28;19912;-66
2022/12/12 10:05:14;;;;;;;;;;;;;;;-7.50;70.35;101306.81;5083795;28;19912;-67
2022/12/12 10:08:05;;;;;;;;;;;;;;;-7.42;70.46;101294.34;5096700;28;19956;-67
2022/12/12 10:10:38;;;;;;;;;;;;;;;-7.37;71.28;101297.63;5073260;28;19916;-67
2022/12/12 10:13:05;;;;;;;;;;;;;;;-7.33;70.64;101299.22;5096913;28;19916;-67
2022/12/12 10:15:38;;;;;;;;;;;;;;;-7.30;68.29;101293.88;5102639;28;19915;-67
2022/12/12 10:18:13;;;;;;;;;;;;;;;-7.27;69.15;101298.13;5117631;28;19943;-67
2022/12/12 10:20:50;;;;;;;;;;;;;;;-7.25;67.80;101298.91;5117601;28;19970;-67
2022/12/12 10:23:15;;;;;;;;;;;;;;;-7.23;68.08;101287.50;5116163;28;20008;-67
2022/12/12 10:25:40;;;;;;;;;;;;;;;-7.23;67.31;101290.09;5117225;28;19912;-67
2022/12/12 10:28:14;;;;;;;;;;;;;;;-7.18;67.62;101286.50;5116814;28;20303;-67
2022/12/12 10:30:57;;;;;;;;;;;;;;;-7.14;67.10;101288.91;5116904;28;19912;-67
2022/12/12 10:33:37;;;;;;;;;;;;;;;-7.10;66.84;101281.81;5117210;28;20340;-67
2022/12/12 10:36:12;;;;;;;;;;;;;;;-7.10;66.30;101292.25;5116864;28;20273;-67
2022/12/12 10:38:50;;;;;;;;;;;;;;;-7.07;66.69;101284.31;5117005;28;19912;-67
2022/12/12 10:41:22;;;;;;;;;;;;;;;-7.08;65.38;101282.59;5116578;28;19927;-67
2022/12/12 10:44:02;;;;;;;;;;;;;;;-7.11;66.55;101278.38;5117086;28;20397;-67
2022/12/12 10:46:37;;;;;;;;;;;;;;;-7.07;66.16;101279.09;5115300;28;19922;-67
2022/12/12 10:49:11;;;;;;;;;;;;;;;-7.04;65.05;101273.72;5116676;28;19955;-66
2022/12/12 10:51:36;;;;;;;;;;;;;;;-7.01;64.81;101274.47;5116695;28;20323;-67
2022/12/12 10:54:04;;;;;;;;;;;;;;;-6.98;65.60;101276.13;5116249;28;19958;-67
2022/12/12 10:56:30;;;;;;;;;;;;;;;-6.88;67.29;101263.53;5116717;28;19911;-66
2022/12/12 10:58:57;;;;;;;;;;;;;;;-6.89;65.58;101270.53;5116444;28;19911;-66
2022/12/12 11:01:35;;;;;;;;;;;;;;;-6.93;64.66;101271.53;5096339;28;20003;-66
2022/12/12 11:04:01;;;;;;;;;;;;;;;-6.90;66.02;101263.59;5089698;28;19912;-66
2022/12/12 11:06:30;;;;;;;;;;;;;;;-6.86;65.33;101267.78;5096106;28;19913;-66
2022/12/12 11:09:04;;;;;;;;;;;;;;;-6.84;65.52;101265.94;5095731;28;20420;-66
2022/12/12 11:11:30;;;;;;;;;;;;;;;-6.73;66.99;101257.69;5093019;28;19928;-66
2022/12/12 11:13:55;;;;;;;;;;;;;;;-6.67;65.76;101267.03;5075518;28;20233;-67
2022/12/12 11:16:22;;;;;;;;;;;;;;;-6.62;67.07;101260.69;5098783;28;19969;-67
2022/12/12 11:19:00;;;;;;;;;;;;;;;-6.59;66.16;101257.13;5115844;28;19922;-66
2022/12/12 11:21:26;;;;;;;;;;;;;;;-6.57;65.54;101257.91;5115567;28;19945;-66
2022/12/12 11:23:54;;;;;;;;;;;;;;;-6.54;65.49;101257.75;5115954;28;20017;-66
2022/12/12 11:26:20;;;;;;;;;;;;;;;-6.52;65.84;101255.09;5115856;28;19912;-67
2022/12/12 11:28:50;;;;;;;;;;;;;;;-6.50;65.57;101256.75;5115638;28;19919;-66
2022/12/12 11:31:23;;;;;;;;;;;;;;;-6.51;65.73;101252.41;5116045;28;20360;-67
2022/12/12 11:33:53;;;;;;;;;;;;;;;-6.47;65.92;101250.53;5116118;28;19963;-66
2022/12/12 11:36:22;;;;;;;;;;;;;;;-6.42;66.01;101248.56;5114760;28;19932;-67
2022/12/12 11:38:54;;;;;;;;;;;;;;;-6.46;64.94;101247.84;5116194;28;20323;-67
2022/12/12 11:41:20;;;;;;;;;;;;;;;-6.47;65.42;101251.38;5115602;28;19919;-66
2022/12/12 11:43:48;;;;;;;;;;;;;;;-6.47;65.46;101258.38;5115812;28;19923;-67
2022/12/12 11:46:13;;;;;;;;;;;;;;;-6.40;67.74;101261.59;5115828;28;19912;-67
2022/12/12 11:48:51;;;;;;;;;;;;;;;-6.36;65.77;101247.47;5115750;28;20363;-67
2022/12/12 11:51:32;;;;;;;;;;;;;;;-6.39;65.02;101255.41;5115172;28;19938;-66
2022/12/12 11:53:58;;;;;;;;;;;;;;;-6.37;65.89;101243.13;5114690;28;20430;-66
2022/12/12 11:56:29;;;;;;;;;;;;;;;-6.32;65.20;101234.19;5115120;28;20017;-66
2022/12/12 11:59:10;;;;;;;;;;;;;;;-6.29;64.96;101248.91;5115129;28;20008;-67
2022/12/12 12:01:43;;;;;;;;;;;;;;;-6.24;65.12;101237.34;5099258;28;19919;-67
2022/12/12 12:04:20;;;;;;;;;;;;;;;-6.24;63.53;101236.47;5095088;28;19915;-66
2022/12/12 12:06:46;;;;;;;;;;;;;;;-6.24;63.42;101228.63;5095097;28;19993;-66
2022/12/12 12:09:20;;;;;;;;;;;;;;;-6.32;62.93;101220.28;5079792;28;19956;-67
2022/12/12 12:12:04;;;;;;;;;;;;;;;-6.33;63.63;101223.78;5074050;28;19916;-67
2022/12/12 12:14:29;;;;;;;;;;;;;;;-6.36;63.80;101213.50;5074812;28;19912;-66
2022/12/12 12:16:54;;;;;;;;;;;;;;;-6.41;63.59;101221.50;5107243;28;19912;-66
2022/12/12 12:19:25;;;;;;;;;;;;;;;-6.48;64.15;101222.69;5115270;28;19916;-66
2022/12/12 12:21:59;;;;;;;;;;;;;;;-6.58;63.62;101210.94;5115018;28;19912;-66
2022/12/12 12:24:33;;;;;;;;;;;;;;;-6.39;64.29;101217.06;5115378;28;20352;-66
2022/12/12 12:27:09;;;;;;;;;;;;;;;-5.56;64.43;101207.25;5115093;28;20034;-66
2022/12/12 12:29:35;;;;;;;;;;;;;;;-3.99;63.38;101208.16;5115274;28;19941;-65
2022/12/12 12:32:00;;;;;;;;;;;;;;;-2.92;56.47;101197.88;5114918;28;19968;-65
2022/12/12 12:34:40;;;;;;;;;;;;;;;-2.41;53.76;101193.13;5115317;28;19912;-66
2022/12/12 12:37:20;;;;;;;;;;;;;;;-1.89;51.97;101185.63;5115228;28;20263;-66
2022/12/12 12:39:45;;;;;;;;;;;;;;;-1.97;49.65;101189.59;5114821;28;19912;-66
2022/12/12 12:42:10;;;;;;;;;;;;;;;-1.73;49.89;101186.34;5114645;28;19920;-66
2022/12/12 12:44:42;;;;;;;;;;;;;;;-1.51;50.17;101185.84;5115307;28;19919;-66
2022/12/12 12:47:16;;;;;;;;;;;;;;;-1.45;51.67;101187.22;5113737;28;19911;-66
2022/12/12 12:50:05;;;;;;;;;;;;;;;-1.04;51.00;101179.28;5114520;28;19912;-66
2022/12/12 12:52:33;;;;;;;;;;;;;;;-1.07;49.47;101179.47;5105173;28;19916;-66
2022/12/12 12:54:58;;;;;;;;;;;;;;;-1.28;51.72;101167.69;5113817;28;19976;-66